Terminal Aerodrome Forecast
Issued by NWS

Home | Current Version | Previous Version | Text Only | Print | Product List | Glossary On
Versions: 1 2 3 4 5 6 7 8 9 10 11 12 13 14 15
000
FTAK31 PANC 082341 AAA
TAFADL
TAF AMD
PADL 082341Z 0900/0924 36010KT P6SM FEW025 BKN040
     FM090400 34008G15KT P6SM SCT030 BKN050
     FM090900 34008KT P6SM FEW080 SCT150
     FM091700 34008G15KT P6SM SCT050 BKN100=

USA.gov is the U.S. government's official web portal to all federal, state and local government web resources and services.